Segou, Mali
Current Conditions -  °F | °C
As of 12:30 PM on Wednesday 22 Oct 2014 (Local Time) from GABS Reporting Station
Scattered Clouds Scattered Clouds  
Wind Chill: 97°   Ceiling: Unl
Heat Index: 97°   Visibility: 6mi
Dew Point: 59°   Wind: 6mph
Humidity: 28%   Direction: NA
Pressure: 29.94"   Gusts: NA
Location:  13.44°N, 6.26°W
Report Text: GABS 221230Z VRB05KT 9999 FEW026 SCT230 36/15 Q1014 NOSIG
Loading
Personal Weather Stations






























Interactive Weather Map
Tropical Storm Tracking
New forecast layout! Learn more

10-Day Weather Forecast

Advertisements
Track Severe Weather on mobile